createdAt,value
2023-04-28T00:00:17.297Z,5.30
2023-04-28T00:03:06.342Z,5.25
2023-04-28T00:05:36.581Z,5.22
2023-04-28T00:08:06.680Z,5.17
2023-04-28T00:10:36.110Z,5.11
2023-04-28T00:13:05.156Z,5.05
2023-04-28T00:15:34.090Z,5.03
2023-04-28T00:18:03.098Z,5.02
2023-04-28T00:20:31.895Z,4.97
2023-04-28T00:23:02.144Z,4.94
2023-04-28T00:25:31.195Z,4.91
2023-04-28T00:28:00.277Z,4.90
2023-04-28T00:30:30.933Z,4.85
2023-04-28T00:32:59.953Z,4.83
2023-04-28T00:35:28.790Z,4.79
2023-04-28T00:37:57.679Z,4.76
2023-04-28T00:40:34.979Z,4.74
2023-04-28T00:43:04.898Z,4.71
2023-04-28T00:45:33.790Z,4.67
2023-04-28T00:48:03.748Z,4.67
2023-04-28T00:50:32.515Z,4.66
2023-04-28T00:53:02.172Z,4.61
2023-04-28T00:55:36.229Z,4.59
2023-04-28T00:58:06.747Z,4.57
2023-04-28T01:00:35.713Z,4.59
2023-04-28T01:03:05.175Z,4.56
2023-04-28T01:05:38.059Z,4.53
2023-04-28T01:08:07.463Z,4.52
2023-04-28T01:10:45.260Z,4.49
2023-04-28T01:13:23.790Z,4.42
2023-04-28T01:15:53.749Z,4.43
2023-04-28T01:18:23.597Z,4.44
2023-04-28T01:20:52.438Z,4.42
2023-04-28T01:23:21.830Z,4.40
2023-04-28T01:25:51.972Z,4.39
2023-04-28T01:28:20.934Z,4.38
2023-04-28T01:30:49.612Z,4.35
2023-04-28T01:33:18.597Z,4.34
2023-04-28T01:35:47.304Z,4.31
2023-04-28T01:38:16.295Z,4.31
2023-04-28T01:40:46.367Z,4.28
2023-04-28T01:43:16.957Z,4.23
2023-04-28T01:45:46.185Z,4.21
2023-04-28T01:48:15.134Z,4.18
2023-04-28T01:50:43.893Z,4.18
2023-04-28T01:53:14.267Z,4.16
2023-04-28T01:55:43.082Z,4.13
2023-04-28T01:58:12.302Z,4.10
2023-04-28T02:00:42.474Z,4.09
2023-04-28T02:03:11.819Z,4.08
2023-04-28T02:05:40.484Z,4.04
2023-04-28T02:08:09.530Z,4.03
2023-04-28T02:10:38.347Z,3.98
2023-04-28T02:13:07.479Z,3.95
2023-04-28T02:15:40.594Z,3.96
2023-04-28T02:18:11.300Z,3.95
2023-04-28T02:20:42.072Z,3.93
2023-04-28T02:23:11.041Z,3.91
2023-04-28T02:25:39.793Z,3.89
2023-04-28T02:28:08.770Z,3.87
2023-04-28T02:30:37.518Z,3.80
2023-04-28T02:33:06.450Z,3.80
2023-04-28T02:35:36.740Z,3.77
2023-04-28T02:38:05.767Z,3.77
2023-04-28T02:40:34.448Z,3.73
2023-04-28T02:43:03.468Z,3.70
2023-04-28T02:45:32.252Z,3.69
2023-04-28T02:48:03.673Z,3.68
2023-04-28T02:50:32.382Z,3.63
2023-04-28T02:53:02.666Z,3.61
2023-04-28T02:55:32.225Z,3.60
2023-04-28T02:58:01.306Z,3.58
2023-04-28T03:00:30.681Z,3.60
2023-04-28T03:02:59.992Z,3.62
2023-04-28T03:05:29.217Z,3.63
2023-04-28T03:07:58.999Z,3.61
2023-04-28T03:10:29.411Z,3.57
2023-04-28T03:12:58.452Z,3.52
2023-04-28T03:15:27.159Z,3.54
2023-04-28T03:17:56.229Z,3.56
2023-04-28T03:20:26.152Z,3.58
2023-04-28T03:22:55.299Z,3.57
2023-04-28T03:25:24.597Z,3.60
2023-04-28T03:27:56.067Z,3.64
2023-04-28T03:30:24.835Z,3.65
2023-04-28T03:32:53.871Z,3.62
2023-04-28T03:35:22.886Z,3.67
2023-04-28T03:37:52.139Z,3.67
2023-04-28T03:40:20.985Z,3.68
2023-04-28T03:43:20.430Z,3.62
2023-04-28T03:46:07.985Z,3.71
2023-04-28T03:48:37.163Z,3.73
2023-04-28T03:51:06.198Z,3.74
2023-04-28T03:53:35.114Z,3.77
2023-04-28T03:56:03.803Z,3.82
2023-04-28T03:58:34.281Z,3.83
2023-04-28T04:01:03.253Z,3.86
2023-04-28T04:03:32.752Z,3.90
2023-04-28T04:06:02.027Z,3.92
2023-04-28T04:08:32.933Z,3.97
2023-04-28T04:11:02.609Z,4.00
2023-04-28T04:13:33.989Z,4.04
2023-04-28T04:16:08.317Z,4.06
2023-04-28T04:18:37.861Z,4.10
2023-04-28T04:21:22.270Z,4.14
2023-04-28T04:23:53.194Z,4.21
2023-04-28T04:26:22.313Z,4.27
2023-04-28T04:28:54.066Z,4.33
2023-04-28T04:31:23.087Z,4.39
2023-04-28T04:33:53.476Z,4.45
2023-04-28T04:36:23.614Z,4.57
2023-04-28T04:38:54.360Z,4.65
2023-04-28T04:41:24.897Z,4.74
2023-04-28T04:44:06.204Z,4.81
2023-04-28T04:46:41.168Z,4.89
2023-04-28T04:49:10.322Z,4.96
2023-04-28T04:51:39.090Z,5.09
2023-04-28T04:54:08.629Z,5.16
2023-04-28T04:56:38.542Z,5.25
2023-04-28T04:59:09.146Z,5.34
2023-04-28T05:01:46.980Z,5.47
2023-04-28T05:04:16.529Z,5.57
2023-04-28T05:06:45.975Z,5.67
2023-04-28T05:09:14.916Z,5.78
2023-04-28T05:11:43.637Z,5.91
2023-04-28T05:14:14.061Z,6.05
2023-04-28T05:16:44.162Z,6.18
2023-04-28T05:19:18.179Z,6.31
2023-04-28T05:21:48.062Z,6.46
2023-04-28T05:24:17.417Z,6.61
2023-04-28T05:26:46.325Z,6.81
2023-04-28T05:29:16.750Z,7.01
2023-04-28T05:31:45.559Z,7.21
2023-04-28T05:34:14.807Z,7.42
2023-04-28T05:36:45.796Z,7.68
2023-04-28T05:39:15.572Z,7.98
2023-04-28T05:41:44.453Z,8.31
2023-04-28T05:44:13.815Z,8.58
2023-04-28T05:46:43.942Z,8.92
2023-04-28T05:49:12.927Z,9.17
2023-04-28T05:51:41.643Z,9.38
2023-04-28T05:54:10.841Z,9.57
2023-04-28T05:56:44.931Z,9.78
2023-04-28T05:59:14.590Z,9.95
2023-04-28T06:01:44.940Z,10.11
2023-04-28T06:04:14.630Z,10.26
2023-04-28T06:06:43.637Z,10.40
2023-04-28T06:09:12.656Z,10.55
2023-04-28T06:11:41.310Z,10.69
2023-04-28T06:14:11.484Z,10.90
2023-04-28T06:16:40.164Z,11.07
2023-04-28T06:19:10.981Z,11.31
2023-04-28T06:21:39.625Z,11.44
2023-04-28T06:24:08.779Z,11.57
2023-04-28T06:26:38.316Z,11.69
2023-04-28T06:29:07.421Z,11.68
2023-04-28T06:31:37.152Z,11.78
2023-04-28T06:34:06.550Z,11.89
2023-04-28T06:36:37.081Z,11.97
2023-04-28T06:39:07.140Z,12.01
2023-04-28T06:41:37.052Z,12.09
2023-04-28T06:44:07.433Z,12.25
2023-04-28T06:46:38.452Z,12.46
2023-04-28T06:49:08.042Z,12.54
2023-04-28T06:51:38.166Z,12.70
2023-04-28T06:54:07.315Z,12.64
2023-04-28T06:56:37.364Z,12.81
2023-04-28T06:59:06.394Z,13.01
2023-04-28T07:01:35.261Z,13.03
2023-04-28T07:04:04.426Z,13.13
2023-04-28T07:06:33.201Z,13.19
2023-04-28T07:09:04.631Z,13.23
2023-04-28T07:11:33.773Z,13.30
2023-04-28T07:14:02.889Z,13.32
2023-04-28T07:16:31.845Z,13.24
2023-04-28T07:19:01.063Z,13.39
2023-04-28T07:21:29.808Z,13.40
2023-04-28T07:23:58.972Z,13.50
2023-04-28T07:26:29.181Z,13.44
2023-04-28T07:28:58.225Z,13.51
2023-04-28T07:31:26.991Z,13.56
2023-04-28T07:33:56.469Z,13.57
2023-04-28T07:36:25.274Z,13.50
2023-04-28T07:38:54.619Z,13.46
2023-04-28T07:41:23.872Z,13.58
2023-04-28T07:43:54.215Z,13.65
2023-04-28T07:46:23.871Z,13.73
2023-04-28T07:48:52.941Z,13.74
2023-04-28T07:51:21.807Z,13.95
2023-04-28T07:53:51.002Z,14.16
2023-04-28T07:56:19.821Z,14.13
2023-04-28T07:58:49.037Z,13.85
2023-04-28T08:01:19.257Z,13.89
2023-04-28T08:03:48.605Z,13.99
2023-04-28T08:06:17.667Z,13.98
2023-04-28T08:08:47.231Z,13.90
2023-04-28T08:11:16.010Z,13.80
2023-04-28T08:13:44.969Z,13.68
2023-04-28T08:16:13.885Z,13.60
2023-04-28T08:18:44.348Z,13.42
2023-04-28T08:21:13.127Z,13.41
2023-04-28T08:23:42.181Z,13.38
2023-04-28T08:26:10.945Z,13.37
2023-04-28T08:28:40.447Z,13.39
2023-04-28T08:31:09.156Z,13.46
2023-04-28T08:33:39.114Z,13.54
2023-04-28T08:36:11.958Z,13.28
2023-04-28T08:38:41.652Z,13.26
2023-04-28T08:41:10.648Z,13.26
2023-04-28T08:43:42.910Z,13.49
2023-04-28T08:46:12.361Z,13.73
2023-04-28T08:48:45.197Z,13.99
2023-04-28T08:51:26.816Z,14.08
2023-04-28T08:56:35.845Z,14.34
2023-04-28T08:59:06.261Z,14.33
2023-04-28T09:01:36.191Z,14.25
2023-04-28T09:04:05.609Z,14.44
2023-04-28T09:06:39.272Z,14.76
2023-04-28T09:09:22.681Z,15.12
2023-04-28T09:11:56.654Z,14.84
2023-04-28T09:14:25.868Z,15.17
2023-04-28T09:16:55.094Z,15.46
2023-04-28T09:19:24.761Z,15.70
2023-04-28T09:21:56.749Z,15.70
2023-04-28T09:24:31.379Z,16.20
2023-04-28T09:27:01.038Z,17.08
2023-04-28T09:29:30.487Z,16.47
2023-04-28T09:32:16.127Z,15.83
2023-04-28T09:34:47.078Z,15.67
2023-04-28T09:37:22.560Z,15.56
2023-04-28T09:39:54.105Z,15.41
2023-04-28T09:42:36.639Z,15.51
2023-04-28T09:45:08.288Z,15.76
2023-04-28T09:47:39.293Z,16.43
2023-04-28T09:50:12.779Z,16.45
2023-04-28T09:52:45.943Z,16.23
2023-04-28T09:55:15.370Z,15.98
2023-04-28T09:57:47.919Z,16.00
2023-04-28T10:00:20.699Z,16.14
2023-04-28T10:02:52.866Z,16.08
2023-04-28T10:05:24.246Z,15.75
2023-04-28T10:07:55.503Z,15.43
2023-04-28T10:10:25.277Z,15.21
2023-04-28T10:12:54.395Z,15.09
2023-04-28T10:15:24.815Z,14.88
2023-04-28T10:17:55.358Z,14.86
2023-04-28T10:20:26.247Z,14.87
2023-04-28T10:23:18.571Z,15.34
2023-04-28T10:25:56.190Z,15.91
2023-04-28T10:28:26.326Z,15.98
2023-04-28T10:31:12.191Z,15.62
2023-04-28T10:33:42.687Z,15.60
2023-04-28T10:36:12.338Z,15.47
2023-04-28T10:39:13.299Z,15.62
2023-04-28T10:41:42.405Z,15.63
2023-04-28T10:44:44.875Z,15.80
2023-04-28T10:47:14.027Z,15.71
2023-04-28T10:50:11.748Z,16.62
2023-04-28T10:52:51.105Z,17.77
2023-04-28T10:55:33.694Z,17.13
2023-04-28T10:58:33.603Z,16.94
2023-04-28T11:01:32.044Z,17.49
2023-04-28T11:04:10.875Z,18.16
2023-04-28T11:06:41.863Z,18.52
2023-04-28T11:09:49.895Z,18.36
2023-04-28T11:12:20.011Z,17.99
2023-04-28T11:14:48.971Z,17.53
2023-04-28T11:17:19.508Z,17.19
2023-04-28T11:19:51.313Z,16.92
2023-04-28T11:22:22.754Z,17.46
2023-04-28T11:24:58.909Z,18.26
2023-04-28T11:27:30.900Z,18.99
2023-04-28T11:30:01.570Z,19.49
2023-04-28T11:32:32.586Z,19.57
2023-04-28T11:35:01.705Z,19.44
2023-04-28T11:37:30.595Z,18.15
2023-04-28T11:39:59.670Z,17.76
2023-04-28T11:42:29.704Z,17.50
2023-04-28T11:44:58.575Z,17.37
2023-04-28T11:47:32.994Z,17.31
2023-04-28T11:50:03.419Z,17.06
2023-04-28T11:52:32.324Z,16.91
2023-04-28T11:55:02.567Z,16.62
2023-04-28T11:57:32.866Z,16.25
2023-04-28T12:00:21.809Z,16.07
2023-04-28T12:02:51.057Z,15.85
2023-04-28T12:05:22.260Z,15.91
2023-04-28T12:07:51.235Z,16.06
2023-04-28T12:10:20.626Z,16.17
2023-04-28T12:12:53.155Z,16.17
2023-04-28T12:15:24.859Z,15.99
2023-04-28T12:17:53.901Z,15.83
2023-04-28T12:20:37.935Z,15.71
2023-04-28T12:23:07.924Z,15.73
2023-04-28T12:25:45.743Z,15.84
2023-04-28T12:28:16.100Z,15.93
2023-04-28T12:30:45.528Z,16.03
2023-04-28T12:33:25.359Z,16.03
2023-04-28T12:35:55.288Z,16.01
2023-04-28T12:38:24.670Z,15.89
2023-04-28T12:40:54.244Z,15.84
2023-04-28T12:43:25.796Z,15.77
2023-04-28T12:45:56.639Z,15.50
2023-04-28T12:48:25.625Z,15.58
2023-04-28T12:50:54.736Z,15.63
2023-04-28T12:53:23.344Z,15.73
2023-04-28T12:55:52.519Z,15.78
2023-04-28T12:58:21.374Z,15.80
2023-04-28T13:00:51.774Z,15.71
2023-04-28T13:03:21.525Z,15.66
2023-04-28T13:05:51.593Z,15.66
2023-04-28T13:08:20.241Z,15.88
2023-04-28T13:10:49.195Z,15.98
2023-04-28T13:13:17.795Z,16.03
2023-04-28T13:15:47.189Z,16.17
2023-04-28T13:18:17.332Z,16.11
2023-04-28T13:20:46.308Z,15.87
2023-04-28T13:23:14.977Z,15.95
2023-04-28T13:25:44.523Z,15.97
2023-04-28T13:28:14.519Z,15.75
2023-04-28T13:30:43.446Z,16.06
2023-04-28T13:33:12.109Z,16.25
2023-04-28T13:35:42.442Z,16.42
2023-04-28T13:38:11.235Z,16.37
2023-04-28T13:40:40.137Z,16.49
2023-04-28T13:43:08.834Z,16.77
2023-04-28T13:45:37.966Z,16.94
2023-04-28T13:48:07.054Z,16.97
2023-04-28T13:50:38.136Z,16.97
2023-04-28T13:53:09.604Z,17.01
2023-04-28T13:55:39.117Z,16.77
2023-04-28T13:58:07.903Z,16.59
2023-04-28T14:00:37.629Z,16.47
2023-04-28T14:03:06.475Z,16.53
2023-04-28T14:05:48.223Z,17.02
2023-04-28T14:08:20.595Z,17.43
2023-04-28T14:10:50.639Z,17.61
2023-04-28T14:13:20.524Z,17.51
2023-04-28T14:15:58.506Z,17.16
2023-04-28T14:18:28.576Z,16.90
2023-04-28T14:20:57.795Z,16.59
2023-04-28T14:23:28.741Z,16.63
2023-04-28T14:25:58.202Z,16.50
2023-04-28T14:28:27.048Z,16.58
2023-04-28T14:30:56.558Z,16.02
2023-04-28T14:33:25.364Z,16.14
2023-04-28T14:35:54.443Z,16.12
2023-04-28T14:38:24.356Z,16.24
2023-04-28T14:40:54.772Z,15.89
2023-04-28T14:43:23.974Z,15.83
2023-04-28T14:45:53.612Z,15.90
2023-04-28T14:48:23.053Z,15.94
2023-04-28T14:50:52.421Z,15.95
2023-04-28T14:53:21.217Z,15.87
2023-04-28T14:55:50.225Z,15.87
2023-04-28T14:58:20.315Z,15.90
2023-04-28T15:00:49.362Z,15.93
2023-04-28T15:03:18.226Z,16.02
2023-04-28T15:05:47.256Z,16.15
2023-04-28T15:08:16.093Z,16.18
2023-04-28T15:10:45.392Z,16.16
2023-04-28T15:13:14.060Z,15.97
2023-04-28T15:15:44.359Z,15.91
2023-04-28T15:18:13.149Z,15.83
2023-04-28T15:20:42.261Z,15.76
2023-04-28T15:23:11.265Z,15.64
2023-04-28T15:25:40.152Z,15.59
2023-04-28T15:28:08.977Z,15.51
2023-04-28T15:30:38.196Z,15.46
2023-04-28T15:33:09.524Z,15.50
2023-04-28T15:35:39.216Z,15.56
2023-04-28T15:38:08.414Z,15.67
2023-04-28T15:40:39.462Z,15.60
2023-04-28T15:43:09.146Z,15.63
2023-04-28T15:45:39.744Z,15.68
2023-04-28T15:48:12.097Z,15.75
2023-04-28T15:50:41.764Z,15.74
2023-04-28T15:53:10.447Z,15.75
2023-04-28T15:55:39.401Z,15.78
2023-04-28T15:58:09.465Z,15.82
2023-04-28T16:00:40.661Z,15.81
2023-04-28T16:03:11.130Z,15.79
2023-04-28T16:05:40.412Z,15.81
2023-04-28T16:08:09.160Z,15.78
2023-04-28T16:10:41.181Z,15.82
2023-04-28T16:13:11.342Z,15.84
2023-04-28T16:15:41.851Z,15.81
2023-04-28T16:18:12.086Z,15.80
2023-04-28T16:20:41.304Z,15.85
2023-04-28T16:23:13.899Z,15.85
2023-04-28T16:25:43.114Z,15.89
2023-04-28T16:28:11.818Z,15.87
2023-04-28T16:30:41.085Z,15.86
2023-04-28T16:33:11.368Z,15.78
2023-04-28T16:35:40.404Z,15.69
2023-04-28T16:38:09.101Z,15.63
2023-04-28T16:40:38.112Z,15.57
2023-04-28T16:43:06.916Z,15.52
2023-04-28T16:45:35.956Z,15.44
2023-04-28T16:48:05.078Z,15.40
2023-04-28T16:50:36.144Z,15.29
2023-04-28T16:53:04.786Z,15.23
2023-04-28T16:55:33.799Z,15.20
2023-04-28T16:58:02.450Z,15.18
2023-04-28T17:00:31.654Z,15.08
2023-04-28T17:03:00.581Z,15.00
2023-04-28T17:05:29.951Z,14.93
2023-04-28T17:08:00.202Z,14.89
2023-04-28T17:10:29.350Z,14.87
2023-04-28T17:12:58.015Z,14.79
2023-04-28T17:15:27.277Z,14.70
2023-04-28T17:17:56.351Z,14.59
2023-04-28T17:20:25.813Z,14.55
2023-04-28T17:22:54.773Z,14.50
2023-04-28T17:25:25.733Z,14.44
2023-04-28T17:27:54.615Z,14.38
2023-04-28T17:30:25.976Z,14.32
2023-04-28T17:32:55.462Z,14.26
2023-04-28T17:35:24.598Z,14.20
2023-04-28T17:37:53.385Z,14.14
2023-04-28T17:40:24.172Z,14.06
2023-04-28T17:42:56.625Z,13.97
2023-04-28T17:45:25.907Z,13.93
2023-04-28T17:47:56.385Z,13.84
2023-04-28T17:50:25.837Z,13.79
2023-04-28T17:52:54.561Z,13.68
2023-04-28T17:55:23.542Z,13.59
2023-04-28T17:57:53.771Z,13.51
2023-04-28T18:00:23.028Z,13.44
2023-04-28T18:02:52.648Z,13.37
2023-04-28T18:05:24.106Z,13.28
2023-04-28T18:07:52.951Z,13.24
2023-04-28T18:10:22.044Z,13.18
2023-04-28T18:12:53.507Z,13.10
2023-04-28T18:15:24.087Z,13.04
2023-04-28T18:17:53.050Z,12.99
2023-04-28T18:20:22.240Z,12.88
2023-04-28T18:22:51.222Z,12.82
2023-04-28T18:25:20.655Z,12.73
2023-04-28T18:27:49.374Z,12.67
2023-04-28T18:30:18.428Z,12.60
2023-04-28T18:32:49.588Z,12.58
2023-04-28T18:35:19.203Z,12.50
2023-04-28T18:37:48.270Z,12.46
2023-04-28T18:40:17.477Z,12.40
2023-04-28T18:42:46.606Z,12.33
2023-04-28T18:45:15.999Z,12.29
2023-04-28T18:47:44.701Z,12.24
2023-04-28T18:50:15.418Z,12.26
2023-04-28T18:52:44.235Z,12.17
2023-04-28T18:55:14.612Z,12.12
2023-04-28T18:57:43.527Z,12.08
2023-04-28T19:00:12.848Z,12.07
2023-04-28T19:02:41.840Z,11.99
2023-04-28T19:05:11.888Z,11.94
2023-04-28T19:07:42.135Z,11.91
2023-04-28T19:10:14.065Z,11.84
2023-04-28T19:12:42.786Z,11.78
2023-04-28T19:15:11.851Z,11.73
2023-04-28T19:17:40.813Z,11.70
2023-04-28T19:20:10.622Z,11.64
2023-04-28T19:22:43.798Z,11.61
2023-04-28T19:25:13.733Z,11.55
2023-04-28T19:27:44.062Z,11.54
2023-04-28T19:30:15.075Z,11.54
2023-04-28T19:32:44.083Z,11.54
2023-04-28T19:35:13.274Z,11.50
2023-04-28T19:37:44.072Z,11.46
2023-04-28T19:40:14.290Z,11.41
2023-04-28T19:42:42.980Z,11.44
2023-04-28T19:45:12.759Z,11.38
2023-04-28T19:47:41.555Z,11.34
2023-04-28T19:50:11.662Z,11.28
2023-04-28T19:52:40.361Z,11.23
2023-04-28T19:55:11.538Z,11.21
2023-04-28T19:57:40.946Z,11.16
2023-04-28T20:00:11.504Z,11.13
2023-04-28T20:02:40.452Z,11.08
2023-04-28T20:05:10.165Z,11.08
2023-04-28T20:07:40.428Z,11.00
2023-04-28T20:10:11.776Z,10.94
2023-04-28T20:12:41.180Z,10.88
2023-04-28T20:15:10.717Z,10.81
2023-04-28T20:17:39.632Z,10.77
2023-04-28T20:20:10.070Z,10.70
2023-04-28T20:22:38.880Z,10.71
2023-04-28T20:25:10.931Z,10.64
2023-04-28T20:27:39.705Z,10.60
2023-04-28T20:30:10.166Z,10.59
2023-04-28T20:32:39.451Z,10.54
2023-04-28T20:35:08.983Z,10.52
2023-04-28T20:37:37.858Z,10.47
2023-04-28T20:40:10.235Z,10.47
2023-04-28T20:42:40.713Z,10.41
2023-04-28T20:45:11.491Z,10.37
2023-04-28T20:47:40.650Z,10.34
2023-04-28T20:50:12.162Z,10.27
2023-04-28T20:52:40.912Z,10.30
2023-04-28T20:55:11.466Z,10.27
2023-04-28T20:57:41.629Z,10.23
2023-04-28T21:00:13.041Z,10.19
2023-04-28T21:02:41.847Z,10.18
2023-04-28T21:05:11.188Z,10.15
2023-04-28T21:07:39.825Z,10.10
2023-04-28T21:10:10.675Z,10.07
2023-04-28T21:12:39.464Z,10.05
2023-04-28T21:15:10.700Z,9.98
2023-04-28T21:17:39.671Z,9.93
2023-04-28T21:20:09.848Z,9.93
2023-04-28T21:22:38.933Z,9.87
2023-04-28T21:25:08.753Z,9.86
2023-04-28T21:27:37.432Z,9.81
2023-04-28T21:30:10.261Z,9.77
2023-04-28T21:32:39.130Z,9.73
2023-04-28T21:35:09.319Z,9.70
2023-04-28T21:37:38.120Z,9.68
2023-04-28T21:40:08.973Z,9.62
2023-04-28T21:42:37.720Z,9.57
2023-04-28T21:45:10.239Z,9.53
2023-04-28T21:47:42.060Z,9.52
2023-04-28T21:50:12.538Z,9.50
2023-04-28T21:52:41.222Z,9.50
2023-04-28T21:55:11.013Z,9.45
2023-04-28T21:57:39.692Z,9.41
2023-04-28T22:00:12.699Z,9.39
2023-04-28T22:02:44.686Z,9.36
2023-04-28T22:05:13.821Z,9.29
2023-04-28T22:07:42.630Z,9.28
2023-04-28T22:10:13.382Z,9.25
2023-04-28T22:12:42.112Z,9.20
2023-04-28T22:15:12.941Z,9.16
2023-04-28T22:17:41.694Z,9.13
2023-04-28T22:20:11.941Z,9.13
2023-04-28T22:22:41.714Z,9.14
2023-04-28T22:25:11.673Z,9.08
2023-04-28T22:27:40.609Z,9.05
2023-04-28T22:30:12.578Z,9.03
2023-04-28T22:32:44.586Z,9.04
2023-04-28T22:35:14.188Z,9.01
2023-04-28T22:37:43.607Z,8.96
2023-04-28T22:40:13.091Z,8.90
2023-04-28T22:42:43.561Z,8.91
2023-04-28T22:45:14.587Z,8.90
2023-04-28T22:47:43.580Z,8.85
2023-04-28T22:50:13.047Z,8.85
2023-04-28T22:52:41.882Z,8.77
2023-04-28T22:55:11.893Z,8.74
2023-04-28T22:57:40.606Z,8.71
2023-04-28T23:00:11.193Z,8.72
2023-04-28T23:02:42.355Z,8.61
2023-04-28T23:05:11.795Z,8.59
2023-04-28T23:07:40.776Z,8.59
2023-04-28T23:10:11.528Z,8.54
2023-04-28T23:12:41.849Z,8.53
2023-04-28T23:15:11.928Z,8.56
2023-04-28T23:17:43.061Z,8.51
2023-04-28T23:20:13.300Z,8.58
2023-04-28T23:22:41.985Z,8.59
2023-04-28T23:25:11.577Z,8.65
2023-04-28T23:27:40.208Z,8.58
2023-04-28T23:30:11.117Z,8.62
2023-04-28T23:32:42.459Z,8.60
2023-04-28T23:35:11.542Z,8.56
2023-04-28T23:37:40.160Z,8.55
2023-04-28T23:40:11.757Z,8.51
2023-04-28T23:42:41.092Z,8.54
2023-04-28T23:45:11.323Z,8.50
2023-04-28T23:47:41.763Z,8.49
2023-04-28T23:50:11.772Z,8.48
2023-04-28T23:52:41.125Z,8.46
2023-04-28T23:55:13.021Z,8.49
2023-04-28T23:57:41.955Z,8.46
